sensor_id;sensor_type;location;lat;lon;timestamp;P1;durP1;ratioP1;P2;durP2;ratioP2
70450;SDS011;58869;51.982;4.450;2024-03-17T00:03:03;9.28;;;9.28;;
70450;SDS011;58869;51.982;4.450;2024-03-17T00:05:45;9.45;;;9.45;;
70450;SDS011;58869;51.982;4.450;2024-03-17T00:08:17;9.63;;;9.63;;
70450;SDS011;58869;51.982;4.450;2024-03-17T00:10:49;9.73;;;9.73;;
70450;SDS011;58869;51.982;4.450;2024-03-17T00:13:54;9.08;;;9.08;;
70450;SDS011;58869;51.982;4.450;2024-03-17T00:16:17;8.99;;;8.99;;
70450;SDS011;58869;51.982;4.450;2024-03-17T00:18:49;8.81;;;8.81;;
70450;SDS011;58869;51.982;4.450;2024-03-17T00:21:28;8.87;;;8.87;;
70450;SDS011;58869;51.982;4.450;2024-03-17T00:23:55;9.21;;;9.21;;
70450;SDS011;58869;51.982;4.450;2024-03-17T00:26:39;9.10;;;9.10;;
70450;SDS011;58869;51.982;4.450;2024-03-17T00:29:17;8.74;;;8.74;;
70450;SDS011;58869;51.982;4.450;2024-03-17T00:31:55;8.83;;;8.82;;
70450;SDS011;58869;51.982;4.450;2024-03-17T00:34:36;8.99;;;8.97;;
70450;SDS011;58869;51.982;4.450;2024-03-17T00:37:08;8.86;;;8.86;;
70450;SDS011;58869;51.982;4.450;2024-03-17T00:39:40;8.58;;;8.58;;
70450;SDS011;58869;51.982;4.450;2024-03-17T00:42:19;8.71;;;8.71;;
70450;SDS011;58869;51.982;4.450;2024-03-17T00:44:59;8.66;;;8.66;;
70450;SDS011;58869;51.982;4.450;2024-03-17T00:47:58;9.14;;;9.14;;
70450;SDS011;58869;51.982;4.450;2024-03-17T00:53:55;8.89;;;8.89;;
70450;SDS011;58869;51.982;4.450;2024-03-17T00:56:24;9.20;;;9.20;;
70450;SDS011;58869;51.982;4.450;2024-03-17T00:58:52;9.44;;;9.43;;
70450;SDS011;58869;51.982;4.450;2024-03-17T01:01:51;9.99;;;9.98;;
70450;SDS011;58869;51.982;4.450;2024-03-17T01:04:35;10.20;;;10.20;;
70450;SDS011;58869;51.982;4.450;2024-03-17T01:07:12;10.21;;;10.21;;
70450;SDS011;58869;51.982;4.450;2024-03-17T01:09:42;10.40;;;10.38;;
70450;SDS011;58869;51.982;4.450;2024-03-17T01:15:16;10.22;;;10.22;;
70450;SDS011;58869;51.982;4.450;2024-03-17T01:17:43;9.72;;;9.72;;
70450;SDS011;58869;51.982;4.450;2024-03-17T01:23:17;9.96;;;9.96;;
70450;SDS011;58869;51.982;4.450;2024-03-17T01:25:54;10.37;;;10.37;;
70450;SDS011;58869;51.982;4.450;2024-03-17T01:28:20;11.13;;;11.13;;
70450;SDS011;58869;51.982;4.450;2024-03-17T01:30:46;11.23;;;11.22;;
70450;SDS011;58869;51.982;4.450;2024-03-17T01:33:20;10.95;;;10.94;;
70450;SDS011;58869;51.982;4.450;2024-03-17T01:35:55;10.73;;;10.73;;
70450;SDS011;58869;51.982;4.450;2024-03-17T01:38:20;11.39;;;11.37;;
70450;SDS011;58869;51.982;4.450;2024-03-17T01:40:52;10.58;;;10.56;;
70450;SDS011;58869;51.982;4.450;2024-03-17T01:43:18;10.81;;;10.80;;
70450;SDS011;58869;51.982;4.450;2024-03-17T01:45:49;10.92;;;10.90;;
70450;SDS011;58869;51.982;4.450;2024-03-17T01:48:38;10.57;;;10.47;;
70450;SDS011;58869;51.982;4.450;2024-03-17T01:51:04;10.78;;;10.76;;
70450;SDS011;58869;51.982;4.450;2024-03-17T01:53:38;10.48;;;10.48;;
70450;SDS011;58869;51.982;4.450;2024-03-17T01:56:16;10.63;;;10.59;;
70450;SDS011;58869;51.982;4.450;2024-03-17T01:58:50;10.77;;;10.77;;
70450;SDS011;58869;51.982;4.450;2024-03-17T02:01:16;11.42;;;11.42;;
70450;SDS011;58869;51.982;4.450;2024-03-17T02:03:49;11.17;;;11.17;;
70450;SDS011;58869;51.982;4.450;2024-03-17T02:06:23;11.10;;;11.10;;
70450;SDS011;58869;51.982;4.450;2024-03-17T02:08:52;11.21;;;11.21;;
70450;SDS011;58869;51.982;4.450;2024-03-17T02:11:37;11.00;;;11.00;;
70450;SDS011;58869;51.982;4.450;2024-03-17T02:14:02;10.99;;;10.96;;
70450;SDS011;58869;51.982;4.450;2024-03-17T02:16:28;11.30;;;11.30;;
70450;SDS011;58869;51.982;4.450;2024-03-17T02:19:05;12.08;;;12.08;;
70450;SDS011;58869;51.982;4.450;2024-03-17T02:21:32;12.44;;;12.44;;
70450;SDS011;58869;51.982;4.450;2024-03-17T02:23:58;11.84;;;11.84;;
70450;SDS011;58869;51.982;4.450;2024-03-17T02:26:25;11.33;;;11.33;;
70450;SDS011;58869;51.982;4.450;2024-03-17T02:29:06;11.82;;;11.82;;
70450;SDS011;58869;51.982;4.450;2024-03-17T02:31:32;11.77;;;11.77;;
70450;SDS011;58869;51.982;4.450;2024-03-17T02:33:58;11.97;;;11.97;;
70450;SDS011;58869;51.982;4.450;2024-03-17T02:36:31;12.14;;;11.98;;
70450;SDS011;58869;51.982;4.450;2024-03-17T02:38:59;11.80;;;11.80;;
70450;SDS011;58869;51.982;4.450;2024-03-17T02:44:29;12.23;;;12.13;;
70450;SDS011;58869;51.982;4.450;2024-03-17T02:46:59;12.28;;;12.24;;
70450;SDS011;58869;51.982;4.450;2024-03-17T02:49:26;12.75;;;12.74;;
70450;SDS011;58869;51.982;4.450;2024-03-17T02:51:56;11.98;;;11.98;;
70450;SDS011;58869;51.982;4.450;2024-03-17T02:54:22;12.52;;;12.52;;
70450;SDS011;58869;51.982;4.450;2024-03-17T02:56:55;11.99;;;11.89;;
70450;SDS011;58869;51.982;4.450;2024-03-17T02:59:27;12.67;;;12.67;;
70450;SDS011;58869;51.982;4.450;2024-03-17T03:01:53;12.55;;;12.54;;
70450;SDS011;58869;51.982;4.450;2024-03-17T03:04:18;12.43;;;12.43;;
70450;SDS011;58869;51.982;4.450;2024-03-17T03:06:45;12.55;;;12.54;;
70450;SDS011;58869;51.982;4.450;2024-03-17T03:09:22;12.45;;;12.45;;
70450;SDS011;58869;51.982;4.450;2024-03-17T03:11:57;12.84;;;12.82;;
70450;SDS011;58869;51.982;4.450;2024-03-17T03:14:30;12.10;;;12.10;;
70450;SDS011;58869;51.982;4.450;2024-03-17T03:17:05;12.50;;;12.50;;
70450;SDS011;58869;51.982;4.450;2024-03-17T03:19:33;12.40;;;12.39;;
70450;SDS011;58869;51.982;4.450;2024-03-17T03:21:59;12.66;;;12.66;;
70450;SDS011;58869;51.982;4.450;2024-03-17T03:24:43;12.18;;;12.14;;
70450;SDS011;58869;51.982;4.450;2024-03-17T03:27:28;12.67;;;12.66;;
70450;SDS011;58869;51.982;4.450;2024-03-17T03:29:53;12.54;;;12.48;;
70450;SDS011;58869;51.982;4.450;2024-03-17T03:32:39;11.77;;;11.77;;
70450;SDS011;58869;51.982;4.450;2024-03-17T03:35:23;11.67;;;11.67;;
70450;SDS011;58869;51.982;4.450;2024-03-17T03:38:01;11.55;;;11.55;;
70450;SDS011;58869;51.982;4.450;2024-03-17T03:40:27;11.97;;;11.95;;
70450;SDS011;58869;51.982;4.450;2024-03-17T03:43:02;11.92;;;11.92;;
70450;SDS011;58869;51.982;4.450;2024-03-17T03:45:31;11.44;;;11.44;;
70450;SDS011;58869;51.982;4.450;2024-03-17T03:48:13;11.22;;;11.21;;
70450;SDS011;58869;51.982;4.450;2024-03-17T03:50:41;11.46;;;11.44;;
70450;SDS011;58869;51.982;4.450;2024-03-17T03:53:10;11.53;;;11.53;;
70450;SDS011;58869;51.982;4.450;2024-03-17T03:55:36;11.77;;;11.77;;
70450;SDS011;58869;51.982;4.450;2024-03-17T03:58:05;11.85;;;11.85;;
70450;SDS011;58869;51.982;4.450;2024-03-17T04:00:31;12.27;;;12.26;;
70450;SDS011;58869;51.982;4.450;2024-03-17T04:02:57;12.52;;;12.46;;
70450;SDS011;58869;51.982;4.450;2024-03-17T04:05:24;12.47;;;12.41;;
70450;SDS011;58869;51.982;4.450;2024-03-17T04:07:49;12.69;;;12.59;;
70450;SDS011;58869;51.982;4.450;2024-03-17T04:10:15;12.54;;;12.53;;
70450;SDS011;58869;51.982;4.450;2024-03-17T04:12:43;12.46;;;12.45;;
70450;SDS011;58869;51.982;4.450;2024-03-17T04:15:15;12.71;;;12.70;;
70450;SDS011;58869;51.982;4.450;2024-03-17T04:17:41;12.70;;;12.70;;
70450;SDS011;58869;51.982;4.450;2024-03-17T04:20:16;12.54;;;12.54;;
70450;SDS011;58869;51.982;4.450;2024-03-17T04:22:42;13.32;;;13.32;;
70450;SDS011;58869;51.982;4.450;2024-03-17T04:25:10;13.22;;;13.22;;
70450;SDS011;58869;51.982;4.450;2024-03-17T04:27:38;13.03;;;13.03;;
70450;SDS011;58869;51.982;4.450;2024-03-17T04:30:20;13.12;;;13.12;;
70450;SDS011;58869;51.982;4.450;2024-03-17T04:32:48;13.44;;;13.44;;
70450;SDS011;58869;51.982;4.450;2024-03-17T04:35:13;13.89;;;13.84;;
70450;SDS011;58869;51.982;4.450;2024-03-17T04:37:45;14.07;;;14.07;;
70450;SDS011;58869;51.982;4.450;2024-03-17T04:40:17;14.15;;;14.15;;
70450;SDS011;58869;51.982;4.450;2024-03-17T04:42:53;14.62;;;14.61;;
70450;SDS011;58869;51.982;4.450;2024-03-17T04:45:18;14.31;;;14.31;;
70450;SDS011;58869;51.982;4.450;2024-03-17T04:47:44;14.83;;;14.83;;
70450;SDS011;58869;51.982;4.450;2024-03-17T04:50:10;15.13;;;15.11;;
70450;SDS011;58869;51.982;4.450;2024-03-17T04:52:43;15.32;;;15.30;;
70450;SDS011;58869;51.982;4.450;2024-03-17T04:55:15;15.50;;;15.50;;
70450;SDS011;58869;51.982;4.450;2024-03-17T04:57:47;14.59;;;14.57;;
70450;SDS011;58869;51.982;4.450;2024-03-17T05:00:14;16.03;;;16.02;;
70450;SDS011;58869;51.982;4.450;2024-03-17T05:02:40;15.46;;;15.46;;
70450;SDS011;58869;51.982;4.450;2024-03-17T05:11:58;15.75;;;15.75;;
70450;SDS011;58869;51.982;4.450;2024-03-17T05:14:41;15.91;;;15.85;;
70450;SDS011;58869;51.982;4.450;2024-03-17T05:17:09;15.47;;;15.40;;
70450;SDS011;58869;51.982;4.450;2024-03-17T05:19:35;15.67;;;15.67;;
70450;SDS011;58869;51.982;4.450;2024-03-17T05:22:00;15.95;;;15.89;;
70450;SDS011;58869;51.982;4.450;2024-03-17T05:24:26;16.13;;;16.03;;
70450;SDS011;58869;51.982;4.450;2024-03-17T05:26:51;16.38;;;16.30;;
70450;SDS011;58869;51.982;4.450;2024-03-17T05:29:18;17.04;;;16.69;;
70450;SDS011;58869;51.982;4.450;2024-03-17T05:31:52;17.00;;;16.71;;
70450;SDS011;58869;51.982;4.450;2024-03-17T05:34:21;16.88;;;16.77;;
70450;SDS011;58869;51.982;4.450;2024-03-17T05:36:49;16.20;;;16.19;;
70450;SDS011;58869;51.982;4.450;2024-03-17T05:39:15;16.62;;;16.59;;
70450;SDS011;58869;51.982;4.450;2024-03-17T05:41:45;16.90;;;16.80;;
70450;SDS011;58869;51.982;4.450;2024-03-17T05:44:16;16.43;;;16.37;;
70450;SDS011;58869;51.982;4.450;2024-03-17T05:46:43;16.36;;;16.25;;
70450;SDS011;58869;51.982;4.450;2024-03-17T05:52:18;16.00;;;15.99;;
70450;SDS011;58869;51.982;4.450;2024-03-17T05:55:05;16.10;;;16.10;;
70450;SDS011;58869;51.982;4.450;2024-03-17T05:57:30;16.01;;;16.01;;
70450;SDS011;58869;51.982;4.450;2024-03-17T05:59:57;15.64;;;15.64;;
70450;SDS011;58869;51.982;4.450;2024-03-17T06:02:23;16.47;;;16.47;;
70450;SDS011;58869;51.982;4.450;2024-03-17T06:07:46;16.11;;;16.06;;
70450;SDS011;58869;51.982;4.450;2024-03-17T06:10:21;15.44;;;15.44;;
70450;SDS011;58869;51.982;4.450;2024-03-17T06:12:49;16.27;;;16.12;;
70450;SDS011;58869;51.982;4.450;2024-03-17T06:18:41;15.84;;;15.79;;
70450;SDS011;58869;51.982;4.450;2024-03-17T06:22:14;15.52;;;15.52;;
70450;SDS011;58869;51.982;4.450;2024-03-17T06:24:51;15.87;;;15.87;;
70450;SDS011;58869;51.982;4.450;2024-03-17T06:27:46;15.34;;;15.34;;
70450;SDS011;58869;51.982;4.450;2024-03-17T06:34:04;15.44;;;15.42;;
70450;SDS011;58869;51.982;4.450;2024-03-17T06:36:33;16.14;;;16.14;;
70450;SDS011;58869;51.982;4.450;2024-03-17T06:38:59;15.49;;;15.41;;
70450;SDS011;58869;51.982;4.450;2024-03-17T06:41:25;15.46;;;15.43;;
70450;SDS011;58869;51.982;4.450;2024-03-17T06:43:50;15.16;;;15.16;;
70450;SDS011;58869;51.982;4.450;2024-03-17T06:46:49;15.40;;;15.38;;
70450;SDS011;58869;51.982;4.450;2024-03-17T06:49:15;15.34;;;15.18;;
70450;SDS011;58869;51.982;4.450;2024-03-17T06:51:46;15.00;;;14.97;;
70450;SDS011;58869;51.982;4.450;2024-03-17T06:54:19;15.94;;;15.85;;
70450;SDS011;58869;51.982;4.450;2024-03-17T06:57:18;15.17;;;15.17;;
70450;SDS011;58869;51.982;4.450;2024-03-17T06:59:43;15.34;;;15.34;;
70450;SDS011;58869;51.982;4.450;2024-03-17T07:05:33;15.44;;;15.42;;
70450;SDS011;58869;51.982;4.450;2024-03-17T07:08:13;14.81;;;14.78;;
70450;SDS011;58869;51.982;4.450;2024-03-17T07:10:58;15.07;;;15.07;;
70450;SDS011;58869;51.982;4.450;2024-03-17T07:14:06;15.10;;;15.10;;
70450;SDS011;58869;51.982;4.450;2024-03-17T07:16:34;15.37;;;15.37;;
70450;SDS011;58869;51.982;4.450;2024-03-17T07:19:01;15.88;;;15.88;;
70450;SDS011;58869;51.982;4.450;2024-03-17T07:21:38;15.62;;;15.62;;
70450;SDS011;58869;51.982;4.450;2024-03-17T07:24:05;15.45;;;15.38;;
70450;SDS011;58869;51.982;4.450;2024-03-17T07:29:23;15.50;;;15.48;;
70450;SDS011;58869;51.982;4.450;2024-03-17T07:31:52;15.66;;;15.60;;
70450;SDS011;58869;51.982;4.450;2024-03-17T07:38:39;15.55;;;15.55;;
70450;SDS011;58869;51.982;4.450;2024-03-17T07:41:20;15.82;;;15.59;;
70450;SDS011;58869;51.982;4.450;2024-03-17T07:43:47;16.01;;;16.01;;
70450;SDS011;58869;51.982;4.450;2024-03-17T07:49:50;14.98;;;14.98;;
70450;SDS011;58869;51.982;4.450;2024-03-17T07:52:15;14.97;;;14.96;;
70450;SDS011;58869;51.982;4.450;2024-03-17T07:54:41;15.23;;;15.22;;
70450;SDS011;58869;51.982;4.450;2024-03-17T07:57:12;15.35;;;15.35;;
70450;SDS011;58869;51.982;4.450;2024-03-17T07:59:39;15.25;;;15.24;;
70450;SDS011;58869;51.982;4.450;2024-03-17T08:02:16;15.64;;;15.52;;
70450;SDS011;58869;51.982;4.450;2024-03-17T08:04:45;15.74;;;15.66;;
70450;SDS011;58869;51.982;4.450;2024-03-17T08:07:16;15.17;;;15.14;;
70450;SDS011;58869;51.982;4.450;2024-03-17T08:12:33;15.19;;;15.16;;
70450;SDS011;58869;51.982;4.450;2024-03-17T08:14:59;15.48;;;15.41;;
70450;SDS011;58869;51.982;4.450;2024-03-17T08:17:25;15.21;;;14.99;;
70450;SDS011;58869;51.982;4.450;2024-03-17T08:20:39;14.99;;;14.99;;
70450;SDS011;58869;51.982;4.450;2024-03-17T08:22:53;15.51;;;15.33;;
70450;SDS011;58869;51.982;4.450;2024-03-17T08:25:24;15.49;;;15.49;;
70450;SDS011;58869;51.982;4.450;2024-03-17T08:28:13;15.17;;;15.17;;
70450;SDS011;58869;51.982;4.450;2024-03-17T08:30:56;15.16;;;15.16;;
70450;SDS011;58869;51.982;4.450;2024-03-17T08:33:23;14.78;;;14.78;;
70450;SDS011;58869;51.982;4.450;2024-03-17T08:38:18;14.96;;;14.95;;
70450;SDS011;58869;51.982;4.450;2024-03-17T08:40:45;14.78;;;14.77;;
70450;SDS011;58869;51.982;4.450;2024-03-17T08:43:16;15.12;;;15.12;;
70450;SDS011;58869;51.982;4.450;2024-03-17T08:46:05;14.90;;;14.72;;
70450;SDS011;58869;51.982;4.450;2024-03-17T08:48:47;14.77;;;14.77;;
70450;SDS011;58869;51.982;4.450;2024-03-17T08:51:17;15.13;;;15.13;;
70450;SDS011;58869;51.982;4.450;2024-03-17T08:53:46;14.81;;;14.78;;
70450;SDS011;58869;51.982;4.450;2024-03-17T08:59:00;15.09;;;15.08;;
70450;SDS011;58869;51.982;4.450;2024-03-17T09:04:55;14.88;;;14.83;;
70450;SDS011;58869;51.982;4.450;2024-03-17T09:07:23;14.91;;;14.91;;
70450;SDS011;58869;51.982;4.450;2024-03-17T09:09:54;14.41;;;14.41;;
70450;SDS011;58869;51.982;4.450;2024-03-17T09:12:28;14.35;;;14.26;;
70450;SDS011;58869;51.982;4.450;2024-03-17T09:15:04;14.67;;;14.67;;
70450;SDS011;58869;51.982;4.450;2024-03-17T09:17:30;14.24;;;14.18;;
70450;SDS011;58869;51.982;4.450;2024-03-17T09:19:56;14.02;;;13.91;;
70450;SDS011;58869;51.982;4.450;2024-03-17T09:22:34;14.27;;;14.18;;
70450;SDS011;58869;51.982;4.450;2024-03-17T09:25:00;14.37;;;14.27;;
70450;SDS011;58869;51.982;4.450;2024-03-17T09:27:26;13.29;;;13.29;;
70450;SDS011;58869;51.982;4.450;2024-03-17T09:29:51;13.94;;;13.94;;
70450;SDS011;58869;51.982;4.450;2024-03-17T09:32:19;13.82;;;13.80;;
70450;SDS011;58869;51.982;4.450;2024-03-17T09:34:47;12.98;;;12.98;;
70450;SDS011;58869;51.982;4.450;2024-03-17T09:40:29;13.27;;;13.27;;
70450;SDS011;58869;51.982;4.450;2024-03-17T09:42:58;13.05;;;13.05;;
70450;SDS011;58869;51.982;4.450;2024-03-17T09:48:46;13.19;;;13.17;;
70450;SDS011;58869;51.982;4.450;2024-03-17T09:51:24;12.91;;;12.91;;
70450;SDS011;58869;51.982;4.450;2024-03-17T09:53:51;13.25;;;13.25;;
70450;SDS011;58869;51.982;4.450;2024-03-17T09:56:21;12.86;;;12.86;;
70450;SDS011;58869;51.982;4.450;2024-03-17T10:01:48;12.49;;;12.47;;
70450;SDS011;58869;51.982;4.450;2024-03-17T10:04:31;11.84;;;11.84;;
70450;SDS011;58869;51.982;4.450;2024-03-17T10:10:15;12.22;;;12.22;;
70450;SDS011;58869;51.982;4.450;2024-03-17T10:12:51;12.10;;;12.10;;
70450;SDS011;58869;51.982;4.450;2024-03-17T10:15:22;12.21;;;12.21;;
70450;SDS011;58869;51.982;4.450;2024-03-17T10:17:48;12.60;;;12.60;;
70450;SDS011;58869;51.982;4.450;2024-03-17T10:20:21;11.92;;;11.92;;
70450;SDS011;58869;51.982;4.450;2024-03-17T10:23:07;11.85;;;11.84;;
70450;SDS011;58869;51.982;4.450;2024-03-17T10:25:53;11.85;;;11.85;;
70450;SDS011;58869;51.982;4.450;2024-03-17T10:36:46;10.91;;;10.90;;
70450;SDS011;58869;51.982;4.450;2024-03-17T10:42:26;10.49;;;10.49;;
70450;SDS011;58869;51.982;4.450;2024-03-17T10:45:12;9.95;;;9.93;;
70450;SDS011;58869;51.982;4.450;2024-03-17T10:47:47;10.65;;;10.59;;
70450;SDS011;58869;51.982;4.450;2024-03-17T10:50:37;10.24;;;10.24;;
70450;SDS011;58869;51.982;4.450;2024-03-17T11:00:22;10.28;;;10.28;;
70450;SDS011;58869;51.982;4.450;2024-03-17T11:02:48;9.96;;;9.96;;
70450;SDS011;58869;51.982;4.450;2024-03-17T11:05:24;10.57;;;10.57;;
70450;SDS011;58869;51.982;4.450;2024-03-17T11:07:58;9.82;;;9.82;;
70450;SDS011;58869;51.982;4.450;2024-03-17T11:10:34;10.18;;;10.17;;
70450;SDS011;58869;51.982;4.450;2024-03-17T11:13:22;10.38;;;10.38;;
70450;SDS011;58869;51.982;4.450;2024-03-17T11:19:05;11.20;;;11.20;;
70450;SDS011;58869;51.982;4.450;2024-03-17T11:21:49;11.05;;;11.04;;
70450;SDS011;58869;51.982;4.450;2024-03-17T11:24:19;11.71;;;11.69;;
70450;SDS011;58869;51.982;4.450;2024-03-17T11:26:59;11.65;;;11.59;;
70450;SDS011;58869;51.982;4.450;2024-03-17T11:48:43;11.45;;;11.45;;
70450;SDS011;58869;51.982;4.450;2024-03-17T11:51:14;11.25;;;11.25;;
70450;SDS011;58869;51.982;4.450;2024-03-17T11:53:44;11.13;;;11.11;;
70450;SDS011;58869;51.982;4.450;2024-03-17T11:59:18;11.40;;;11.39;;
70450;SDS011;58869;51.982;4.450;2024-03-17T12:01:50;11.83;;;11.82;;
70450;SDS011;58869;51.982;4.450;2024-03-17T12:04:16;11.81;;;11.76;;
70450;SDS011;58869;51.982;4.450;2024-03-17T12:13:16;10.67;;;10.67;;
70450;SDS011;58869;51.982;4.450;2024-03-17T12:18:55;10.81;;;10.78;;
70450;SDS011;58869;51.982;4.450;2024-03-17T12:21:31;10.05;;;10.04;;
70450;SDS011;58869;51.982;4.450;2024-03-17T12:24:30;10.04;;;10.03;;
70450;SDS011;58869;51.982;4.450;2024-03-17T12:27:07;10.03;;;10.03;;
70450;SDS011;58869;51.982;4.450;2024-03-17T12:32:29;10.09;;;10.06;;
70450;SDS011;58869;51.982;4.450;2024-03-17T12:40:51;10.15;;;10.15;;
70450;SDS011;58869;51.982;4.450;2024-03-17T12:43:23;10.16;;;10.16;;
70450;SDS011;58869;51.982;4.450;2024-03-17T12:57:54;9.66;;;9.66;;
70450;SDS011;58869;51.982;4.450;2024-03-17T13:01:11;9.88;;;9.88;;
70450;SDS011;58869;51.982;4.450;2024-03-17T13:03:53;9.19;;;9.18;;
70450;SDS011;58869;51.982;4.450;2024-03-17T13:06:32;8.78;;;8.78;;
70450;SDS011;58869;51.982;4.450;2024-03-17T13:09:14;8.61;;;8.61;;
70450;SDS011;58869;51.982;4.450;2024-03-17T13:11:45;8.70;;;8.70;;
70450;SDS011;58869;51.982;4.450;2024-03-17T13:14:19;8.23;;;8.23;;
70450;SDS011;58869;51.982;4.450;2024-03-17T13:16:44;8.89;;;8.89;;
70450;SDS011;58869;51.982;4.450;2024-03-17T13:19:13;9.65;;;9.65;;
70450;SDS011;58869;51.982;4.450;2024-03-17T13:34:14;9.72;;;9.72;;
70450;SDS011;58869;51.982;4.450;2024-03-17T13:36:42;10.18;;;10.18;;
70450;SDS011;58869;51.982;4.450;2024-03-17T13:42:42;8.90;;;8.90;;
70450;SDS011;58869;51.982;4.450;2024-03-17T13:45:40;9.10;;;9.10;;
70450;SDS011;58869;51.982;4.450;2024-03-17T13:48:08;8.83;;;8.83;;
70450;SDS011;58869;51.982;4.450;2024-03-17T13:50:39;8.63;;;8.63;;
70450;SDS011;58869;51.982;4.450;2024-03-17T13:53:18;8.77;;;8.77;;
70450;SDS011;58869;51.982;4.450;2024-03-17T13:55:53;8.09;;;8.08;;
70450;SDS011;58869;51.982;4.450;2024-03-17T13:58:24;8.60;;;8.60;;
70450;SDS011;58869;51.982;4.450;2024-03-17T14:00:52;8.58;;;8.58;;
70450;SDS011;58869;51.982;4.450;2024-03-17T14:03:21;8.44;;;8.44;;
70450;SDS011;58869;51.982;4.450;2024-03-17T14:05:52;8.39;;;8.39;;
70450;SDS011;58869;51.982;4.450;2024-03-17T14:08:18;8.27;;;8.27;;
70450;SDS011;58869;51.982;4.450;2024-03-17T14:10:46;8.52;;;8.52;;
70450;SDS011;58869;51.982;4.450;2024-03-17T14:13:12;8.80;;;8.80;;
70450;SDS011;58869;51.982;4.450;2024-03-17T14:18:30;8.47;;;8.46;;
70450;SDS011;58869;51.982;4.450;2024-03-17T14:21:18;8.85;;;8.84;;
70450;SDS011;58869;51.982;4.450;2024-03-17T14:26:53;7.89;;;7.89;;
70450;SDS011;58869;51.982;4.450;2024-03-17T14:38:54;8.54;;;8.50;;
70450;SDS011;58869;51.982;4.450;2024-03-17T14:41:29;9.09;;;9.06;;
70450;SDS011;58869;51.982;4.450;2024-03-17T14:49:32;8.17;;;8.17;;
70450;SDS011;58869;51.982;4.450;2024-03-17T14:52:05;7.78;;;7.78;;
70450;SDS011;58869;51.982;4.450;2024-03-17T14:54:40;8.47;;;8.43;;
70450;SDS011;58869;51.982;4.450;2024-03-17T14:57:08;8.09;;;8.07;;
70450;SDS011;58869;51.982;4.450;2024-03-17T14:59:35;8.13;;;8.11;;
70450;SDS011;58869;51.982;4.450;2024-03-17T15:02:00;7.15;;;7.15;;
70450;SDS011;58869;51.982;4.450;2024-03-17T15:04:26;7.38;;;7.38;;
70450;SDS011;58869;51.982;4.450;2024-03-17T15:09:50;7.38;;;7.38;;
70450;SDS011;58869;51.982;4.450;2024-03-17T15:12:19;7.31;;;7.31;;
70450;SDS011;58869;51.982;4.450;2024-03-17T15:14:50;7.54;;;7.54;;
70450;SDS011;58869;51.982;4.450;2024-03-17T15:17:18;7.72;;;7.72;;
70450;SDS011;58869;51.982;4.450;2024-03-17T15:20:01;8.23;;;8.21;;
70450;SDS011;58869;51.982;4.450;2024-03-17T15:22:34;7.47;;;7.43;;
70450;SDS011;58869;51.982;4.450;2024-03-17T15:24:59;7.30;;;7.28;;
70450;SDS011;58869;51.982;4.450;2024-03-17T15:27:25;7.13;;;7.12;;
70450;SDS011;58869;51.982;4.450;2024-03-17T15:29:53;7.88;;;7.84;;
70450;SDS011;58869;51.982;4.450;2024-03-17T15:32:21;8.26;;;8.18;;
70450;SDS011;58869;51.982;4.450;2024-03-17T15:34:47;7.44;;;7.39;;
70450;SDS011;58869;51.982;4.450;2024-03-17T15:37:20;7.68;;;7.67;;
70450;SDS011;58869;51.982;4.450;2024-03-17T15:39:46;9.13;;;9.13;;
70450;SDS011;58869;51.982;4.450;2024-03-17T15:42:18;7.90;;;7.90;;
70450;SDS011;58869;51.982;4.450;2024-03-17T15:44:52;7.38;;;7.37;;
70450;SDS011;58869;51.982;4.450;2024-03-17T15:47:18;7.95;;;7.89;;
70450;SDS011;58869;51.982;4.450;2024-03-17T15:49:44;8.60;;;8.55;;
70450;SDS011;58869;51.982;4.450;2024-03-17T15:52:19;8.28;;;8.26;;
70450;SDS011;58869;51.982;4.450;2024-03-17T15:58:04;8.43;;;8.42;;
70450;SDS011;58869;51.982;4.450;2024-03-17T16:00:30;9.47;;;9.47;;
70450;SDS011;58869;51.982;4.450;2024-03-17T16:02:56;9.51;;;9.48;;
70450;SDS011;58869;51.982;4.450;2024-03-17T16:05:30;9.45;;;9.43;;
70450;SDS011;58869;51.982;4.450;2024-03-17T16:08:25;9.16;;;9.16;;
70450;SDS011;58869;51.982;4.450;2024-03-17T16:23:57;9.62;;;9.61;;
70450;SDS011;58869;51.982;4.450;2024-03-17T16:48:21;10.34;;;10.31;;
70450;SDS011;58869;51.982;4.450;2024-03-17T16:57:25;10.14;;;10.13;;
70450;SDS011;58869;51.982;4.450;2024-03-17T17:02:19;10.67;;;10.63;;
70450;SDS011;58869;51.982;4.450;2024-03-17T17:04:45;9.71;;;9.71;;
70450;SDS011;58869;51.982;4.450;2024-03-17T17:07:11;8.88;;;8.88;;
70450;SDS011;58869;51.982;4.450;2024-03-17T17:09:37;8.01;;;8.01;;
70450;SDS011;58869;51.982;4.450;2024-03-17T17:12:05;8.80;;;8.80;;
70450;SDS011;58869;51.982;4.450;2024-03-17T17:14:33;9.69;;;9.69;;
70450;SDS011;58869;51.982;4.450;2024-03-17T17:17:12;8.99;;;8.96;;
70450;SDS011;58869;51.982;4.450;2024-03-17T17:19:38;9.13;;;9.10;;
70450;SDS011;58869;51.982;4.450;2024-03-17T17:22:27;8.03;;;8.03;;
70450;SDS011;58869;51.982;4.450;2024-03-17T17:28:35;7.14;;;7.14;;
70450;SDS011;58869;51.982;4.450;2024-03-17T17:31:00;7.95;;;7.95;;
70450;SDS011;58869;51.982;4.450;2024-03-17T17:34:08;9.38;;;9.38;;
70450;SDS011;58869;51.982;4.450;2024-03-17T17:41:05;9.03;;;8.97;;
70450;SDS011;58869;51.982;4.450;2024-03-17T17:43:55;7.93;;;7.91;;
70450;SDS011;58869;51.982;4.450;2024-03-17T17:46:44;9.00;;;9.00;;
70450;SDS011;58869;51.982;4.450;2024-03-17T17:56:18;8.40;;;8.37;;
70450;SDS011;58869;51.982;4.450;2024-03-17T17:58:49;8.14;;;8.14;;
70450;SDS011;58869;51.982;4.450;2024-03-17T18:01:18;7.43;;;7.43;;
70450;SDS011;58869;51.982;4.450;2024-03-17T18:03:53;8.91;;;8.91;;
70450;SDS011;58869;51.982;4.450;2024-03-17T18:09:18;7.82;;;7.82;;
70450;SDS011;58869;51.982;4.450;2024-03-17T18:11:50;8.56;;;8.56;;
70450;SDS011;58869;51.982;4.450;2024-03-17T18:14:15;7.64;;;7.63;;
70450;SDS011;58869;51.982;4.450;2024-03-17T18:23:46;7.06;;;7.06;;
70450;SDS011;58869;51.982;4.450;2024-03-17T18:26:44;6.96;;;6.96;;
70450;SDS011;58869;51.982;4.450;2024-03-17T18:29:15;6.97;;;6.97;;
70450;SDS011;58869;51.982;4.450;2024-03-17T18:34:48;6.80;;;6.80;;
70450;SDS011;58869;51.982;4.450;2024-03-17T18:43:29;8.02;;;8.01;;
70450;SDS011;58869;51.982;4.450;2024-03-17T18:45:56;8.51;;;8.51;;
70450;SDS011;58869;51.982;4.450;2024-03-17T18:48:34;8.40;;;8.39;;
70450;SDS011;58869;51.982;4.450;2024-03-17T18:50:59;8.22;;;8.22;;
70450;SDS011;58869;51.982;4.450;2024-03-17T18:53:45;8.63;;;8.63;;
70450;SDS011;58869;51.982;4.450;2024-03-17T18:56:32;9.04;;;9.04;;
70450;SDS011;58869;51.982;4.450;2024-03-17T18:59:04;8.63;;;8.63;;
70450;SDS011;58869;51.982;4.450;2024-03-17T19:01:50;8.71;;;8.71;;
70450;SDS011;58869;51.982;4.450;2024-03-17T19:05:08;9.20;;;9.17;;
70450;SDS011;58869;51.982;4.450;2024-03-17T19:07:57;9.28;;;9.27;;
70450;SDS011;58869;51.982;4.450;2024-03-17T19:18:55;8.51;;;8.51;;
70450;SDS011;58869;51.982;4.450;2024-03-17T19:30:22;8.88;;;8.88;;
70450;SDS011;58869;51.982;4.450;2024-03-17T19:32:57;8.42;;;8.42;;
70450;SDS011;58869;51.982;4.450;2024-03-17T19:35:31;9.31;;;9.31;;
70450;SDS011;58869;51.982;4.450;2024-03-17T19:37:57;9.95;;;9.95;;
70450;SDS011;58869;51.982;4.450;2024-03-17T19:47:14;9.33;;;9.33;;
70450;SDS011;58869;51.982;4.450;2024-03-17T20:04:02;7.86;;;7.86;;
70450;SDS011;58869;51.982;4.450;2024-03-17T20:06:33;8.01;;;8.01;;
70450;SDS011;58869;51.982;4.450;2024-03-17T20:20:13;7.88;;;7.88;;
70450;SDS011;58869;51.982;4.450;2024-03-17T20:22:38;7.88;;;7.88;;